sensor_id;sensor_type;location;lat;lon;timestamp;pressure;altitude;pressure_sealevel;temperature
32039;BMP280;18549;42.286;22.688;2023-03-16T00:02:04;94720.41;;;11.61
32039;BMP280;18549;42.286;22.688;2023-03-16T00:04:31;94731.25;;;11.60
32039;BMP280;18549;42.286;22.688;2023-03-16T00:07:03;94720.53;;;11.59
32039;BMP280;18549;42.286;22.688;2023-03-16T00:09:30;94733.72;;;11.60
32039;BMP280;18549;42.286;22.688;2023-03-16T00:11:58;94730.94;;;11.53
32039;BMP280;18549;42.286;22.688;2023-03-16T00:14:29;94732.88;;;11.50
32039;BMP280;18549;42.286;22.688;2023-03-16T00:16:56;94739.44;;;11.51
32039;BMP280;18549;42.286;22.688;2023-03-16T00:19:22;94738.75;;;11.49
32039;BMP280;18549;42.286;22.688;2023-03-16T00:21:50;94734.50;;;11.40
32039;BMP280;18549;42.286;22.688;2023-03-16T00:24:17;94739.56;;;11.39
32039;BMP280;18549;42.286;22.688;2023-03-16T00:26:44;94743.44;;;11.32
32039;BMP280;18549;42.286;22.688;2023-03-16T00:29:13;94743.34;;;11.33
32039;BMP280;18549;42.286;22.688;2023-03-16T00:31:40;94752.84;;;11.28
32039;BMP280;18549;42.286;22.688;2023-03-16T00:34:08;94750.25;;;11.30
32039;BMP280;18549;42.286;22.688;2023-03-16T00:36:35;94755.56;;;11.25
32039;BMP280;18549;42.286;22.688;2023-03-16T00:39:02;94758.72;;;11.27
32039;BMP280;18549;42.286;22.688;2023-03-16T00:41:29;94760.16;;;11.30
32039;BMP280;18549;42.286;22.688;2023-03-16T00:43:56;94775.41;;;11.25
32039;BMP280;18549;42.286;22.688;2023-03-16T00:46:24;94769.62;;;11.25
32039;BMP280;18549;42.286;22.688;2023-03-16T00:48:50;94770.69;;;11.22
32039;BMP280;18549;42.286;22.688;2023-03-16T00:51:18;94772.25;;;11.23
32039;BMP280;18549;42.286;22.688;2023-03-16T00:53:47;94768.34;;;11.21
32039;BMP280;18549;42.286;22.688;2023-03-16T00:56:15;94775.53;;;11.24
32039;BMP280;18549;42.286;22.688;2023-03-16T00:58:42;94782.28;;;11.22
32039;BMP280;18549;42.286;22.688;2023-03-16T01:01:11;94778.38;;;11.19
32039;BMP280;18549;42.286;22.688;2023-03-16T01:03:40;94781.97;;;11.16
32039;BMP280;18549;42.286;22.688;2023-03-16T01:06:08;94789.13;;;11.09
32039;BMP280;18549;42.286;22.688;2023-03-16T01:08:36;94776.84;;;11.08
32039;BMP280;18549;42.286;22.688;2023-03-16T01:11:03;94779.69;;;11.03
32039;BMP280;18549;42.286;22.688;2023-03-16T01:13:31;94784.31;;;10.97
32039;BMP280;18549;42.286;22.688;2023-03-16T01:15:58;94787.22;;;11.02
32039;BMP280;18549;42.286;22.688;2023-03-16T01:18:25;94785.31;;;11.05
32039;BMP280;18549;42.286;22.688;2023-03-16T01:20:53;94784.62;;;11.03
32039;BMP280;18549;42.286;22.688;2023-03-16T01:23:20;94794.66;;;11.02
32039;BMP280;18549;42.286;22.688;2023-03-16T01:25:47;94796.13;;;11.04
32039;BMP280;18549;42.286;22.688;2023-03-16T01:28:18;94794.31;;;11.06
32039;BMP280;18549;42.286;22.688;2023-03-16T01:30:45;94796.78;;;11.06
32039;BMP280;18549;42.286;22.688;2023-03-16T01:33:12;94788.81;;;11.03
32039;BMP280;18549;42.286;22.688;2023-03-16T01:35:39;94789.84;;;11.00
32039;BMP280;18549;42.286;22.688;2023-03-16T01:38:08;94801.56;;;10.98
32039;BMP280;18549;42.286;22.688;2023-03-16T01:40:35;94800.22;;;10.94
32039;BMP280;18549;42.286;22.688;2023-03-16T01:43:03;94808.00;;;10.90
32039;BMP280;18549;42.286;22.688;2023-03-16T01:45:57;94809.13;;;10.86
32039;BMP280;18549;42.286;22.688;2023-03-16T01:48:37;94815.81;;;10.75
32039;BMP280;18549;42.286;22.688;2023-03-16T01:51:09;94824.09;;;10.53
32039;BMP280;18549;42.286;22.688;2023-03-16T01:53:40;94822.06;;;10.58
32039;BMP280;18549;42.286;22.688;2023-03-16T01:56:13;94828.47;;;10.61
32039;BMP280;18549;42.286;22.688;2023-03-16T01:58:43;94827.69;;;10.60
32039;BMP280;18549;42.286;22.688;2023-03-16T02:01:12;94826.56;;;10.64
32039;BMP280;18549;42.286;22.688;2023-03-16T02:03:40;94826.56;;;10.64
32039;BMP280;18549;42.286;22.688;2023-03-16T02:06:10;94830.38;;;10.68
32039;BMP280;18549;42.286;22.688;2023-03-16T02:08:41;94836.47;;;10.64
32039;BMP280;18549;42.286;22.688;2023-03-16T02:11:09;94840.31;;;10.57
32039;BMP280;18549;42.286;22.688;2023-03-16T02:13:36;94837.72;;;10.59
32039;BMP280;18549;42.286;22.688;2023-03-16T02:16:05;94840.31;;;10.57
32039;BMP280;18549;42.286;22.688;2023-03-16T02:18:32;94846.97;;;10.57
32039;BMP280;18549;42.286;22.688;2023-03-16T02:21:06;94845.50;;;10.54
32039;BMP280;18549;42.286;22.688;2023-03-16T02:23:34;94846.03;;;10.58
32039;BMP280;18549;42.286;22.688;2023-03-16T02:26:06;94850.22;;;10.57
32039;BMP280;18549;42.286;22.688;2023-03-16T02:28:40;94846.28;;;10.55
32039;BMP280;18549;42.286;22.688;2023-03-16T02:31:14;94857.22;;;10.53
32039;BMP280;18549;42.286;22.688;2023-03-16T02:33:42;94852.03;;;10.45
32039;BMP280;18549;42.286;22.688;2023-03-16T02:36:11;94853.97;;;10.41
32039;BMP280;18549;42.286;22.688;2023-03-16T02:38:39;94855.41;;;10.33
32039;BMP280;18549;42.286;22.688;2023-03-16T02:41:10;94855.84;;;10.27
32039;BMP280;18549;42.286;22.688;2023-03-16T02:43:40;94867.94;;;10.21
32039;BMP280;18549;42.286;22.688;2023-03-16T02:46:09;94858.34;;;10.16
32039;BMP280;18549;42.286;22.688;2023-03-16T02:48:42;94867.56;;;10.14
32039;BMP280;18549;42.286;22.688;2023-03-16T02:51:10;94868.47;;;10.13
32039;BMP280;18549;42.286;22.688;2023-03-16T02:53:37;94862.75;;;10.23
32039;BMP280;18549;42.286;22.688;2023-03-16T02:56:06;94862.41;;;10.28
32039;BMP280;18549;42.286;22.688;2023-03-16T02:58:33;94870.72;;;10.27
32039;BMP280;18549;42.286;22.688;2023-03-16T03:01:02;94876.81;;;10.34
32039;BMP280;18549;42.286;22.688;2023-03-16T03:03:29;94871.87;;;10.34
32039;BMP280;18549;42.286;22.688;2023-03-16T03:06:00;94879.94;;;10.36
32039;BMP280;18549;42.286;22.688;2023-03-16T03:08:27;94883.88;;;10.38
32039;BMP280;18549;42.286;22.688;2023-03-16T03:10:53;94885.03;;;10.34
32039;BMP280;18549;42.286;22.688;2023-03-16T03:13:20;94882.44;;;10.36
32039;BMP280;18549;42.286;22.688;2023-03-16T03:15:48;94883.09;;;10.38
32039;BMP280;18549;42.286;22.688;2023-03-16T03:18:15;94888.97;;;10.37
32039;BMP280;18549;42.286;22.688;2023-03-16T03:20:42;94890.78;;;10.35
32039;BMP280;18549;42.286;22.688;2023-03-16T03:23:11;94903.16;;;10.35
32039;BMP280;18549;42.286;22.688;2023-03-16T03:25:39;94901.13;;;10.29
32039;BMP280;18549;42.286;22.688;2023-03-16T03:28:06;94910.56;;;10.24
32039;BMP280;18549;42.286;22.688;2023-03-16T03:30:33;94907.53;;;10.10
32039;BMP280;18549;42.286;22.688;2023-03-16T03:33:01;94916.19;;;10.15
32039;BMP280;18549;42.286;22.688;2023-03-16T03:35:28;94916.84;;;10.06
32039;BMP280;18549;42.286;22.688;2023-03-16T03:37:56;94930.00;;;9.96
32039;BMP280;18549;42.286;22.688;2023-03-16T03:40:24;94921.34;;;9.90
32039;BMP280;18549;42.286;22.688;2023-03-16T03:42:51;94926.41;;;9.77
32039;BMP280;18549;42.286;22.688;2023-03-16T03:45:18;94936.00;;;9.81
32039;BMP280;18549;42.286;22.688;2023-03-16T03:47:45;94936.00;;;9.81
32039;BMP280;18549;42.286;22.688;2023-03-16T03:50:12;94936.66;;;9.72
32039;BMP280;18549;42.286;22.688;2023-03-16T03:52:39;94938.22;;;9.73
32039;BMP280;18549;42.286;22.688;2023-03-16T03:55:09;94935.75;;;9.73
32039;BMP280;18549;42.286;22.688;2023-03-16T03:57:37;94938.13;;;9.75
32039;BMP280;18549;42.286;22.688;2023-03-16T04:00:06;94947.34;;;9.73
32039;BMP280;18549;42.286;22.688;2023-03-16T04:02:36;94948.34;;;9.70
32039;BMP280;18549;42.286;22.688;2023-03-16T04:05:03;94953.06;;;9.73
32039;BMP280;18549;42.286;22.688;2023-03-16T04:07:30;94951.38;;;9.74
32039;BMP280;18549;42.286;22.688;2023-03-16T04:09:59;94964.34;;;9.77
32039;BMP280;18549;42.286;22.688;2023-03-16T04:12:25;94962.19;;;9.73
32039;BMP280;18549;42.286;22.688;2023-03-16T04:14:53;94967.00;;;9.74
32039;BMP280;18549;42.286;22.688;2023-03-16T04:17:20;94975.44;;;9.72
32039;BMP280;18549;42.286;22.688;2023-03-16T04:19:48;94963.34;;;9.80
32039;BMP280;18549;42.286;22.688;2023-03-16T04:22:15;94971.13;;;9.86
32039;BMP280;18549;42.286;22.688;2023-03-16T04:24:42;94991.91;;;9.84
32039;BMP280;18549;42.286;22.688;2023-03-16T04:27:08;94974.19;;;9.89
32039;BMP280;18549;42.286;22.688;2023-03-16T04:29:36;94988.78;;;9.82
32039;BMP280;18549;42.286;22.688;2023-03-16T04:32:05;94996.97;;;9.82
32039;BMP280;18549;42.286;22.688;2023-03-16T04:34:32;94995.97;;;9.85
32039;BMP280;18549;42.286;22.688;2023-03-16T04:36:58;95007.41;;;9.75
32039;BMP280;18549;42.286;22.688;2023-03-16T04:39:26;95009.66;;;9.78
32039;BMP280;18549;42.286;22.688;2023-03-16T04:41:53;95021.81;;;9.81
32039;BMP280;18549;42.286;22.688;2023-03-16T04:44:20;95008.75;;;9.79
32039;BMP280;18549;42.286;22.688;2023-03-16T04:46:47;95011.25;;;9.79
32039;BMP280;18549;42.286;22.688;2023-03-16T04:49:15;95018.34;;;9.83
32039;BMP280;18549;42.286;22.688;2023-03-16T04:51:42;95022.50;;;9.83
32039;BMP280;18549;42.286;22.688;2023-03-16T04:54:11;95031.03;;;9.79
32039;BMP280;18549;42.286;22.688;2023-03-16T04:56:38;95033.03;;;9.74
32039;BMP280;18549;42.286;22.688;2023-03-16T04:59:05;95037.13;;;9.75
32039;BMP280;18549;42.286;22.688;2023-03-16T05:01:32;95032.81;;;9.77
32039;BMP280;18549;42.286;22.688;2023-03-16T05:03:59;95035.22;;;9.78
32039;BMP280;18549;42.286;22.688;2023-03-16T05:06:28;95038.00;;;9.74
32039;BMP280;18549;42.286;22.688;2023-03-16T05:08:58;95047.66;;;9.77
32039;BMP280;18549;42.286;22.688;2023-03-16T05:11:24;95045.88;;;9.79
32039;BMP280;18549;42.286;22.688;2023-03-16T05:13:51;95044.53;;;9.75
32039;BMP280;18549;42.286;22.688;2023-03-16T05:16:18;95042.84;;;9.75
32039;BMP280;18549;42.286;22.688;2023-03-16T05:18:45;95049.50;;;9.75
32039;BMP280;18549;42.286;22.688;2023-03-16T05:21:11;95043.38;;;9.68
32039;BMP280;18549;42.286;22.688;2023-03-16T05:23:40;95051.47;;;9.70
32039;BMP280;18549;42.286;22.688;2023-03-16T05:26:07;95046.84;;;9.65
32039;BMP280;18549;42.286;22.688;2023-03-16T05:28:34;95052.47;;;9.67
32039;BMP280;18549;42.286;22.688;2023-03-16T05:31:01;95047.50;;;9.67
32039;BMP280;18549;42.286;22.688;2023-03-16T05:33:28;95046.72;;;9.67
32039;BMP280;18549;42.286;22.688;2023-03-16T05:35:54;95040.91;;;9.68
32039;BMP280;18549;42.286;22.688;2023-03-16T05:38:22;95053.06;;;9.71
32039;BMP280;18549;42.286;22.688;2023-03-16T05:40:50;95050.59;;;9.71
32039;BMP280;18549;42.286;22.688;2023-03-16T05:43:18;95051.16;;;9.74
32039;BMP280;18549;42.286;22.688;2023-03-16T05:45:46;95060.03;;;9.77
32039;BMP280;18549;42.286;22.688;2023-03-16T05:48:13;95057.47;;;9.78
32039;BMP280;18549;42.286;22.688;2023-03-16T05:50:40;95068.97;;;9.79
32039;BMP280;18549;42.286;22.688;2023-03-16T05:53:07;95067.28;;;9.80
32039;BMP280;18549;42.286;22.688;2023-03-16T05:55:34;95075.00;;;9.75
32039;BMP280;18549;42.286;22.688;2023-03-16T05:58:03;95074.88;;;9.77
32039;BMP280;18549;42.286;22.688;2023-03-16T06:00:30;95075.09;;;9.74
32039;BMP280;18549;42.286;22.688;2023-03-16T06:02:57;95079.84;;;9.77
32039;BMP280;18549;42.286;22.688;2023-03-16T06:05:24;95080.75;;;9.76
32039;BMP280;18549;42.286;22.688;2023-03-16T06:07:52;95080.53;;;9.79
32039;BMP280;18549;42.286;22.688;2023-03-16T06:10:20;95087.25;;;9.77
32039;BMP280;18549;42.286;22.688;2023-03-16T06:12:50;95092.56;;;9.72
32039;BMP280;18549;42.286;22.688;2023-03-16T06:15:19;95092.22;;;9.77
32039;BMP280;18549;42.286;22.688;2023-03-16T06:17:49;95093.81;;;9.78
32039;BMP280;18549;42.286;22.688;2023-03-16T06:20:16;95092.56;;;9.72
32039;BMP280;18549;42.286;22.688;2023-03-16T06:22:43;95100.28;;;9.68
32039;BMP280;18549;42.286;22.688;2023-03-16T06:25:11;95103.41;;;9.70
32039;BMP280;18549;42.286;22.688;2023-03-16T06:27:38;95108.50;;;9.68
32039;BMP280;18549;42.286;22.688;2023-03-16T06:30:07;95111.75;;;9.69
32039;BMP280;18549;42.286;22.688;2023-03-16T06:32:36;95119.31;;;9.55
32039;BMP280;18549;42.286;22.688;2023-03-16T06:35:04;95118.06;;;9.50
32039;BMP280;18549;42.286;22.688;2023-03-16T06:37:31;95126.94;;;9.52
32039;BMP280;18549;42.286;22.688;2023-03-16T06:39:58;95125.03;;;9.55
32039;BMP280;18549;42.286;22.688;2023-03-16T06:42:25;95117.06;;;9.52
32039;BMP280;18549;42.286;22.688;2023-03-16T06:44:52;95129.59;;;9.49
32039;BMP280;18549;42.286;22.688;2023-03-16T06:47:19;95141.19;;;9.49
32039;BMP280;18549;42.286;22.688;2023-03-16T06:49:48;95145.13;;;9.51
32039;BMP280;18549;42.286;22.688;2023-03-16T06:52:16;95155.34;;;9.47
32039;BMP280;18549;42.286;22.688;2023-03-16T06:54:42;95152.69;;;9.37
32039;BMP280;18549;42.286;22.688;2023-03-16T06:57:11;95157.44;;;9.40
32039;BMP280;18549;42.286;22.688;2023-03-16T06:59:38;95162.41;;;9.40
32039;BMP280;18549;42.286;22.688;2023-03-16T07:02:05;95166.81;;;9.35
32039;BMP280;18549;42.286;22.688;2023-03-16T07:04:32;95170.28;;;9.33
32039;BMP280;18549;42.286;22.688;2023-03-16T07:07:01;95174.84;;;9.26
32039;BMP280;18549;42.286;22.688;2023-03-16T07:09:28;95174.84;;;9.26
32039;BMP280;18549;42.286;22.688;2023-03-16T07:11:54;95178.00;;;9.28
32039;BMP280;18549;42.286;22.688;2023-03-16T07:14:22;95186.03;;;9.32
32039;BMP280;18549;42.286;22.688;2023-03-16T07:16:50;95183.37;;;9.22
32039;BMP280;18549;42.286;22.688;2023-03-16T07:19:17;95181.16;;;9.30
32039;BMP280;18549;42.286;22.688;2023-03-16T07:21:45;95186.22;;;9.41
32039;BMP280;18549;42.286;22.688;2023-03-16T07:24:13;95186.31;;;9.40
32039;BMP280;18549;42.286;22.688;2023-03-16T07:26:40;95181.66;;;9.48
32039;BMP280;18549;42.286;22.688;2023-03-16T07:29:08;95185.22;;;9.44
32039;BMP280;18549;42.286;22.688;2023-03-16T07:31:35;95179.50;;;9.43
32039;BMP280;18549;42.286;22.688;2023-03-16T07:34:03;95188.97;;;9.49
32039;BMP280;18549;42.286;22.688;2023-03-16T07:36:29;95187.97;;;9.52
32039;BMP280;18549;42.286;22.688;2023-03-16T07:38:56;95189.75;;;9.62
32039;BMP280;18549;42.286;22.688;2023-03-16T07:41:25;95191.53;;;9.60
32039;BMP280;18549;42.286;22.688;2023-03-16T07:43:52;95195.62;;;9.61
32039;BMP280;18549;42.286;22.688;2023-03-16T07:46:19;95198.34;;;9.69
32039;BMP280;18549;42.286;22.688;2023-03-16T07:48:49;95195.59;;;9.73
32039;BMP280;18549;42.286;22.688;2023-03-16T07:51:17;95197.84;;;9.76
32039;BMP280;18549;42.286;22.688;2023-03-16T07:53:46;95196.88;;;9.66
32039;BMP280;18549;42.286;22.688;2023-03-16T07:56:13;95200.63;;;9.72
32039;BMP280;18549;42.286;22.688;2023-03-16T07:58:43;95202.09;;;9.74
32039;BMP280;18549;42.286;22.688;2023-03-16T08:01:10;95203.69;;;9.75
32039;BMP280;18549;42.286;22.688;2023-03-16T08:03:37;95205.66;;;9.83
32039;BMP280;18549;42.286;22.688;2023-03-16T08:06:05;95200.00;;;9.81
32039;BMP280;18549;42.286;22.688;2023-03-16T08:08:33;95199.87;;;9.59
32039;BMP280;18549;42.286;22.688;2023-03-16T08:11:00;95208.47;;;9.66
32039;BMP280;18549;42.286;22.688;2023-03-16T08:13:26;95206.37;;;9.72
32039;BMP280;18549;42.286;22.688;2023-03-16T08:15:58;95208.84;;;9.60
32039;BMP280;18549;42.286;22.688;2023-03-16T08:18:26;95210.94;;;9.41
32039;BMP280;18549;42.286;22.688;2023-03-16T08:20:55;95213.59;;;9.63
32039;BMP280;18549;42.286;22.688;2023-03-16T08:23:22;95217.25;;;9.70
32039;BMP280;18549;42.286;22.688;2023-03-16T08:25:51;95222.72;;;9.75
32039;BMP280;18549;42.286;22.688;2023-03-16T08:28:19;95229.94;;;9.53
32039;BMP280;18549;42.286;22.688;2023-03-16T08:30:47;95222.84;;;9.61
32039;BMP280;18549;42.286;22.688;2023-03-16T08:33:17;95227.25;;;9.56
32039;BMP280;18549;42.286;22.688;2023-03-16T08:35:45;95231.34;;;9.57
32039;BMP280;18549;42.286;22.688;2023-03-16T08:38:13;95232.63;;;9.75
32039;BMP280;18549;42.286;22.688;2023-03-16T08:40:42;95223.59;;;9.86
32039;BMP280;18549;42.286;22.688;2023-03-16T08:43:13;95223.47;;;9.87
32039;BMP280;18549;42.286;22.688;2023-03-16T08:45:40;95224.41;;;9.50
32039;BMP280;18549;42.286;22.688;2023-03-16T08:48:08;95223.41;;;9.64
32039;BMP280;18549;42.286;22.688;2023-03-16T08:50:40;95224.75;;;9.81
32039;BMP280;18549;42.286;22.688;2023-03-16T08:53:09;95230.22;;;9.98
32039;BMP280;18549;42.286;22.688;2023-03-16T08:55:37;95228.63;;;9.97
32039;BMP280;18549;42.286;22.688;2023-03-16T08:58:06;95230.63;;;9.92
32039;BMP280;18549;42.286;22.688;2023-03-16T09:00:33;95222.97;;;10.07
32039;BMP280;18549;42.286;22.688;2023-03-16T09:03:01;95228.63;;;10.09
32039;BMP280;18549;42.286;22.688;2023-03-16T09:05:28;95224.78;;;10.28
32039;BMP280;18549;42.286;22.688;2023-03-16T09:07:57;95225.22;;;10.22
32039;BMP280;18549;42.286;22.688;2023-03-16T09:10:24;95228.00;;;10.18
32039;BMP280;18549;42.286;22.688;2023-03-16T09:12:52;95229.97;;;10.13
32039;BMP280;18549;42.286;22.688;2023-03-16T09:15:20;95241.31;;;9.92
32039;BMP280;18549;42.286;22.688;2023-03-16T09:17:47;95240.91;;;9.49
32039;BMP280;18549;42.286;22.688;2023-03-16T09:20:16;95237.84;;;9.58
32039;BMP280;18549;42.286;22.688;2023-03-16T09:22:43;95249.72;;;9.53
32039;BMP280;18549;42.286;22.688;2023-03-16T09:25:12;95251.81;;;9.47
32039;BMP280;18549;42.286;22.688;2023-03-16T09:27:39;95251.03;;;9.71
32039;BMP280;18549;42.286;22.688;2023-03-16T09:30:08;95242.81;;;9.70
32039;BMP280;18549;42.286;22.688;2023-03-16T09:32:36;95243.81;;;9.43
32039;BMP280;18549;42.286;22.688;2023-03-16T09:35:04;95243.88;;;9.79
32039;BMP280;18549;42.286;22.688;2023-03-16T09:37:31;95249.31;;;9.84
32039;BMP280;18549;42.286;22.688;2023-03-16T09:39:58;95249.25;;;9.97
32039;BMP280;18549;42.286;22.688;2023-03-16T09:42:33;95236.97;;;9.96
32039;BMP280;18549;42.286;22.688;2023-03-16T09:45:14;95238.03;;;10.04
32039;BMP280;18549;42.286;22.688;2023-03-16T09:47:46;95230.03;;;10.24
32039;BMP280;18549;42.286;22.688;2023-03-16T09:50:20;95235.59;;;10.27
32039;BMP280;18549;42.286;22.688;2023-03-16T09:52:54;95239.03;;;10.37
32039;BMP280;18549;42.286;22.688;2023-03-16T09:55:27;95228.31;;;10.37
32039;BMP280;18549;42.286;22.688;2023-03-16T09:57:58;95238.03;;;10.40
32039;BMP280;18549;42.286;22.688;2023-03-16T10:00:28;95237.31;;;10.15
32039;BMP280;18549;42.286;22.688;2023-03-16T10:03:09;95238.09;;;10.15
32039;BMP280;18549;42.286;22.688;2023-03-16T10:05:40;95246.66;;;9.87
32039;BMP280;18549;42.286;22.688;2023-03-16T10:08:18;95244.09;;;10.00
32039;BMP280;18549;42.286;22.688;2023-03-16T10:10:58;95249.00;;;9.88
32039;BMP280;18549;42.286;22.688;2023-03-16T10:13:35;95253.37;;;9.85
32039;BMP280;18549;42.286;22.688;2023-03-16T10:16:07;95242.00;;;9.70
32039;BMP280;18549;42.286;22.688;2023-03-16T10:18:40;95254.38;;;9.94
32039;BMP280;18549;42.286;22.688;2023-03-16T10:21:13;95247.25;;;9.78
32039;BMP280;18549;42.286;22.688;2023-03-16T10:23:43;95249.31;;;9.84
32039;BMP280;18549;42.286;22.688;2023-03-16T10:26:13;95259.41;;;10.05
32039;BMP280;18549;42.286;22.688;2023-03-16T10:28:44;95245.22;;;10.20
32039;BMP280;18549;42.286;22.688;2023-03-16T10:31:13;95244.97;;;10.35
32039;BMP280;18549;42.286;22.688;2023-03-16T10:33:41;95255.47;;;10.03
32039;BMP280;18549;42.286;22.688;2023-03-16T10:36:14;95237.25;;;10.27
32039;BMP280;18549;42.286;22.688;2023-03-16T10:38:43;95237.72;;;10.44
32039;BMP280;18549;42.286;22.688;2023-03-16T10:41:22;95238.19;;;10.49
32039;BMP280;18549;42.286;22.688;2023-03-16T10:43:52;95233.53;;;10.45
32039;BMP280;18549;42.286;22.688;2023-03-16T10:46:20;95228.19;;;10.38
32039;BMP280;18549;42.286;22.688;2023-03-16T10:48:52;95233.75;;;10.19
32039;BMP280;18549;42.286;22.688;2023-03-16T10:51:26;95234.75;;;10.04
32039;BMP280;18549;42.286;22.688;2023-03-16T10:53:56;95228.19;;;10.15
32039;BMP280;18549;42.286;22.688;2023-03-16T10:56:32;95225.38;;;10.32
32039;BMP280;18549;42.286;22.688;2023-03-16T10:59:11;95229.50;;;10.44
32039;BMP280;18549;42.286;22.688;2023-03-16T11:01:44;95218.25;;;10.51
32039;BMP280;18549;42.286;22.688;2023-03-16T11:04:14;95227.31;;;10.39
32039;BMP280;18549;42.286;22.688;2023-03-16T11:06:50;95222.53;;;10.49
32039;BMP280;18549;42.286;22.688;2023-03-16T11:09:21;95231.38;;;10.63
32039;BMP280;18549;42.286;22.688;2023-03-16T11:11:50;95232.53;;;10.70
32039;BMP280;18549;42.286;22.688;2023-03-16T11:14:21;95224.44;;;10.68
32039;BMP280;18549;42.286;22.688;2023-03-16T11:16:55;95225.84;;;10.60
32039;BMP280;18549;42.286;22.688;2023-03-16T11:19:26;95227.78;;;10.67
32039;BMP280;18549;42.286;22.688;2023-03-16T11:21:57;95229.94;;;10.72
32039;BMP280;18549;42.286;22.688;2023-03-16T11:24:31;95229.09;;;10.84
32039;BMP280;18549;42.286;22.688;2023-03-16T11:27:02;95233.84;;;10.87
32039;BMP280;18549;42.286;22.688;2023-03-16T11:29:42;95226.16;;;10.79
32039;BMP280;18549;42.286;22.688;2023-03-16T11:32:16;95222.19;;;10.76
32039;BMP280;18549;42.286;22.688;2023-03-16T11:34:45;95221.97;;;10.79
32039;BMP280;18549;42.286;22.688;2023-03-16T11:37:19;95226.16;;;10.79
32039;BMP280;18549;42.286;22.688;2023-03-16T11:39:57;95227.91;;;10.43
32039;BMP280;18549;42.286;22.688;2023-03-16T11:42:29;95229.13;;;10.37
32039;BMP280;18549;42.286;22.688;2023-03-16T11:45:02;95228.31;;;10.37
32039;BMP280;18549;42.286;22.688;2023-03-16T11:50:50;95234.22;;;10.47
32039;BMP280;18549;42.286;22.688;2023-03-16T11:53:31;95233.75;;;10.42
32039;BMP280;18549;42.286;22.688;2023-03-16T11:56:11;95243.59;;;10.31
32039;BMP280;18549;42.286;22.688;2023-03-16T11:58:54;95238.19;;;10.49
32039;BMP280;18549;42.286;22.688;2023-03-16T12:01:30;95232.44;;;10.49
32039;BMP280;18549;42.286;22.688;2023-03-16T12:04:20;95242.34;;;10.49
32039;BMP280;18549;42.286;22.688;2023-03-16T12:07:10;95243.75;;;10.40
32039;BMP280;18549;42.286;22.688;2023-03-16T12:09:55;95249.56;;;10.52
32039;BMP280;18549;42.286;22.688;2023-03-16T12:12:33;95245.78;;;10.58
32039;BMP280;18549;42.286;22.688;2023-03-16T12:15:14;95245.37;;;10.64
32039;BMP280;18549;42.286;22.688;2023-03-16T12:17:45;95247.84;;;10.64
32039;BMP280;18549;42.286;22.688;2023-03-16T12:20:16;95249.88;;;10.70
32039;BMP280;18549;42.286;22.688;2023-03-16T12:22:45;95244.25;;;10.68
32039;BMP280;18549;42.286;22.688;2023-03-16T12:25:17;95255.69;;;10.58
32039;BMP280;18549;42.286;22.688;2023-03-16T12:27:48;95255.00;;;10.56
32039;BMP280;18549;42.286;22.688;2023-03-16T12:30:29;95266.72;;;10.54
32039;BMP280;18549;42.286;22.688;2023-03-16T12:33:05;95259.22;;;10.44
32039;BMP280;18549;42.286;22.688;2023-03-16T12:35:43;95282.34;;;10.32
32039;BMP280;18549;42.286;22.688;2023-03-16T12:38:30;95283.72;;;10.36
32039;BMP280;18549;42.286;22.688;2023-03-16T12:41:12;95294.44;;;10.36
32039;BMP280;18549;42.286;22.688;2023-03-16T12:44:00;95294.31;;;10.38
32039;BMP280;18549;42.286;22.688;2023-03-16T12:46:38;95303.94;;;10.30
32039;BMP280;18549;42.286;22.688;2023-03-16T12:49:09;95304.75;;;10.30
32039;BMP280;18549;42.286;22.688;2023-03-16T12:51:38;95308.22;;;10.28
32039;BMP280;18549;42.286;22.688;2023-03-16T12:54:17;95309.59;;;10.20
32039;BMP280;18549;42.286;22.688;2023-03-16T12:56:46;95320.81;;;10.25
32039;BMP280;18549;42.286;22.688;2023-03-16T12:59:16;95314.59;;;10.07
32039;BMP280;18549;42.286;22.688;2023-03-16T13:01:48;95322.88;;;10.06
32039;BMP280;18549;42.286;22.688;2023-03-16T13:04:18;95325.06;;;10.11
32039;BMP280;18549;42.286;22.688;2023-03-16T13:06:48;95337.37;;;10.00
32039;BMP280;18549;42.286;22.688;2023-03-16T13:09:19;95332.22;;;9.90
32039;BMP280;18549;42.286;22.688;2023-03-16T13:11:48;95334.16;;;9.86
32039;BMP280;18549;42.286;22.688;2023-03-16T13:14:36;95332.72;;;9.95
32039;BMP280;18549;42.286;22.688;2023-03-16T13:17:20;95329.44;;;9.95
32039;BMP280;18549;42.286;22.688;2023-03-16T13:20:00;95333.91;;;9.90
32039;BMP280;18549;42.286;22.688;2023-03-16T13:22:29;95333.97;;;9.88
32039;BMP280;18549;42.286;22.688;2023-03-16T13:25:11;95333.41;;;9.97
32039;BMP280;18549;42.286;22.688;2023-03-16T13:27:39;95330.72;;;10.00
32039;BMP280;18549;42.286;22.688;2023-03-16T13:30:17;95341.22;;;9.91
32039;BMP280;18549;42.286;22.688;2023-03-16T13:32:45;95341.72;;;9.96
32039;BMP280;18549;42.286;22.688;2023-03-16T13:35:15;95344.50;;;10.04
32039;BMP280;18549;42.286;22.688;2023-03-16T13:37:44;95349.03;;;10.10
32039;BMP280;18549;42.286;22.688;2023-03-16T13:40:18;95353.00;;;10.13
32039;BMP280;18549;42.286;22.688;2023-03-16T13:42:46;95352.00;;;10.15
32039;BMP280;18549;42.286;22.688;2023-03-16T13:45:17;95357.19;;;10.00
32039;BMP280;18549;42.286;22.688;2023-03-16T13:47:47;95351.84;;;9.93
32039;BMP280;18549;42.286;22.688;2023-03-16T13:50:16;95353.47;;;9.81
32039;BMP280;18549;42.286;22.688;2023-03-16T13:52:52;95359.63;;;9.75
32039;BMP280;18549;42.286;22.688;2023-03-16T13:55:26;95353.88;;;9.75
32039;BMP280;18549;42.286;22.688;2023-03-16T13:57:55;95359.66;;;9.49
32039;BMP280;18549;42.286;22.688;2023-03-16T14:00:24;95356.31;;;9.50
32039;BMP280;18549;42.286;22.688;2023-03-16T14:02:53;95356.22;;;9.64
32039;BMP280;18549;42.286;22.688;2023-03-16T14:05:24;95355.66;;;9.73
32039;BMP280;18549;42.286;22.688;2023-03-16T14:07:53;95359.59;;;9.63
32039;BMP280;18549;42.286;22.688;2023-03-16T14:10:21;95370.59;;;9.59
32039;BMP280;18549;42.286;22.688;2023-03-16T14:12:50;95372.72;;;9.51
32039;BMP280;18549;42.286;22.688;2023-03-16T14:15:17;95367.06;;;9.49
32039;BMP280;18549;42.286;22.688;2023-03-16T14:17:44;95369.34;;;9.40
32039;BMP280;18549;42.286;22.688;2023-03-16T14:20:17;95374.25;;;9.27